createdAt,value
2019-04-30T00:00:30.443Z,90.83
2019-04-30T00:01:31.368Z,90.56
2019-04-30T00:02:35.994Z,90.93
2019-04-30T00:03:32.672Z,91.38
2019-04-30T00:04:37.621Z,91.38
2019-04-30T00:05:31.943Z,90.97
2019-04-30T00:06:34.353Z,91.65
2019-04-30T00:07:33.203Z,91.03
2019-04-30T00:08:35.493Z,90.97
2019-04-30T00:09:35.167Z,91.55
2019-04-30T00:10:39.643Z,91.65
2019-04-30T00:11:35.855Z,91.49
2019-04-30T00:12:38.029Z,91.28
2019-04-30T00:13:35.906Z,92.00
2019-04-30T00:14:37.602Z,91.90
2019-04-30T00:15:35.683Z,91.80
2019-04-30T00:16:36.352Z,92.10
2019-04-30T00:17:35.891Z,91.90
2019-04-30T00:18:35.892Z,91.75
2019-04-30T00:19:35.907Z,92.16
2019-04-30T00:20:37.246Z,91.80
2019-04-30T00:21:36.142Z,92.21
2019-04-30T00:22:34.490Z,91.96
2019-04-30T00:23:35.960Z,91.69
2019-04-30T00:24:35.588Z,92.88
2019-04-30T00:25:35.593Z,92.36
2019-04-30T00:26:35.449Z,92.06
2019-04-30T00:27:35.959Z,91.86
2019-04-30T00:28:35.378Z,91.90
2019-04-30T00:29:36.279Z,92.82
2019-04-30T00:30:39.355Z,92.72
2019-04-30T00:31:36.532Z,93.02
2019-04-30T00:32:39.360Z,92.41
2019-04-30T00:33:38.009Z,92.93
2019-04-30T00:34:39.344Z,92.51
2019-04-30T00:35:37.480Z,93.13
2019-04-30T00:36:37.483Z,92.93
2019-04-30T00:37:37.768Z,92.82
2019-04-30T00:38:37.938Z,93.13
2019-04-30T00:39:38.178Z,92.78
2019-04-30T00:40:37.322Z,92.57
2019-04-30T00:41:39.847Z,92.88
2019-04-30T00:42:39.622Z,92.78
2019-04-30T00:43:46.408Z,92.57
2019-04-30T00:44:38.905Z,93.13
2019-04-30T00:45:40.045Z,92.68
2019-04-30T00:46:40.262Z,93.02
2019-04-30T00:47:39.498Z,93.74
2019-04-30T00:48:40.729Z,93.23
2019-04-30T00:49:39.009Z,93.95
2019-04-30T00:50:39.178Z,93.64
2019-04-30T00:51:39.329Z,93.44
2019-04-30T00:52:39.514Z,93.23
2019-04-30T00:53:39.679Z,93.29
2019-04-30T00:54:39.931Z,93.39
2019-04-30T00:55:44.403Z,93.33
2019-04-30T00:56:42.230Z,93.23
2019-04-30T00:57:43.806Z,94.15
2019-04-30T00:58:41.484Z,93.85
2019-04-30T00:59:46.558Z,93.64
2019-04-30T01:00:41.897Z,93.95
2019-04-30T01:01:43.505Z,94.05
2019-04-30T01:02:43.169Z,93.49
2019-04-30T01:03:46.389Z,93.90
2019-04-30T01:04:45.021Z,93.85
2019-04-30T01:05:44.504Z,94.05
2019-04-30T01:06:43.952Z,94.26
2019-04-30T01:07:48.713Z,93.85
2019-04-30T01:08:46.114Z,95.07
2019-04-30T01:09:46.536Z,94.26
2019-04-30T01:10:46.017Z,93.95
2019-04-30T01:11:46.801Z,93.74
2019-04-30T01:12:49.623Z,93.95
2019-04-30T01:13:50.161Z,93.85
2019-04-30T01:14:45.225Z,94.98
2019-04-30T01:15:43.969Z,94.26
2019-04-30T01:16:44.642Z,93.85
2019-04-30T01:17:45.285Z,94.15
2019-04-30T01:18:45.887Z,94.56
2019-04-30T01:19:45.888Z,94.26
2019-04-30T01:20:46.298Z,94.77
2019-04-30T01:21:46.939Z,94.77
2019-04-30T01:22:45.766Z,94.36
2019-04-30T01:23:51.870Z,94.26
2019-04-30T01:24:47.105Z,94.36
2019-04-30T01:25:49.999Z,94.98
2019-04-30T01:26:48.585Z,94.56
2019-04-30T01:27:46.747Z,94.98
2019-04-30T01:28:45.894Z,94.56
2019-04-30T01:29:46.045Z,94.87
2019-04-30T01:30:46.201Z,94.62
2019-04-30T01:31:46.349Z,94.77
2019-04-30T01:32:52.114Z,94.98
2019-04-30T01:33:48.935Z,94.77
2019-04-30T01:34:49.985Z,94.56
2019-04-30T01:35:48.967Z,94.77
2019-04-30T01:36:52.074Z,94.87
2019-04-30T01:37:48.795Z,94.67
2019-04-30T01:38:51.074Z,94.87
2019-04-30T01:39:49.776Z,94.15
2019-04-30T01:40:51.165Z,94.56
2019-04-30T01:41:49.110Z,94.77
2019-04-30T01:42:51.624Z,94.56
2019-04-30T01:43:48.726Z,94.87
2019-04-30T01:44:53.527Z,94.87
2019-04-30T01:45:49.736Z,94.15
2019-04-30T01:46:51.641Z,95.18
2019-04-30T01:47:50.027Z,95.49
2019-04-30T01:48:51.960Z,95.39
2019-04-30T01:49:50.287Z,94.67
2019-04-30T01:50:49.461Z,94.67
2019-04-30T01:51:52.828Z,95.79
2019-04-30T01:52:50.772Z,95.59
2019-04-30T01:53:49.900Z,95.79
2019-04-30T01:54:50.074Z,95.79
2019-04-30T01:55:50.262Z,95.39
2019-04-30T01:56:50.459Z,94.67
2019-04-30T01:57:50.642Z,95.64
2019-04-30T01:58:50.829Z,95.43
2019-04-30T01:59:50.977Z,95.39
2019-04-30T02:00:51.170Z,95.43
2019-04-30T02:01:51.360Z,95.84
2019-04-30T02:02:51.539Z,95.39
2019-04-30T02:03:51.727Z,95.64
2019-04-30T02:04:51.926Z,95.53
2019-04-30T02:05:52.116Z,95.39
2019-04-30T02:06:52.328Z,94.98
2019-04-30T02:07:52.538Z,94.46
2019-04-30T02:08:52.733Z,94.71
2019-04-30T02:09:52.932Z,95.84
2019-04-30T02:10:53.120Z,94.77
2019-04-30T02:11:53.336Z,94.98
2019-04-30T02:12:53.512Z,95.39
2019-04-30T02:13:53.686Z,95.39
2019-04-30T02:14:53.859Z,94.67
2019-04-30T02:15:54.045Z,94.98
2019-04-30T02:16:55.257Z,94.77
2019-04-30T02:17:54.435Z,95.07
2019-04-30T02:18:54.585Z,95.59
2019-04-30T02:19:56.990Z,94.56
2019-04-30T02:20:55.947Z,94.77
2019-04-30T02:21:55.076Z,94.77
2019-04-30T02:22:55.240Z,94.67
2019-04-30T02:23:55.404Z,95.69
2019-04-30T02:24:55.570Z,94.98
2019-04-30T02:25:55.741Z,94.67
2019-04-30T02:26:55.873Z,94.36
2019-04-30T02:27:56.066Z,94.67
2019-04-30T02:28:56.256Z,94.67
2019-04-30T02:29:56.454Z,94.26
2019-04-30T02:30:56.644Z,95.79
2019-04-30T02:31:56.831Z,95.49
2019-04-30T02:33:00.084Z,95.69
2019-04-30T02:33:57.178Z,95.79
2019-04-30T02:34:59.686Z,95.18
2019-04-30T02:36:03.265Z,95.28
2019-04-30T02:36:59.575Z,95.59
2019-04-30T02:38:00.176Z,95.64
2019-04-30T02:39:02.416Z,95.64
2019-04-30T02:40:00.881Z,95.74
2019-04-30T02:40:59.725Z,95.74
2019-04-30T02:42:00.004Z,96.25
2019-04-30T02:43:01.764Z,96.31
2019-04-30T02:44:00.063Z,96.25
2019-04-30T02:45:00.092Z,96.04
2019-04-30T02:46:00.296Z,96.10
2019-04-30T02:47:00.380Z,96.35
2019-04-30T02:48:00.591Z,96.45
2019-04-30T02:48:59.970Z,96.56
2019-04-30T02:50:14.156Z,96.15
2019-04-30T02:51:02.220Z,96.15
2019-04-30T02:52:00.374Z,96.77
2019-04-30T02:53:02.771Z,96.35
2019-04-30T02:54:00.792Z,96.25
2019-04-30T02:55:00.988Z,96.66
2019-04-30T02:56:02.617Z,96.25
2019-04-30T02:57:02.331Z,96.04
2019-04-30T02:58:01.473Z,96.15
2019-04-30T02:59:03.862Z,96.35
2019-04-30T03:00:02.935Z,96.77
2019-04-30T03:01:02.090Z,96.35
2019-04-30T03:02:02.269Z,96.66
2019-04-30T03:03:02.417Z,96.35
2019-04-30T03:04:02.603Z,96.15
2019-04-30T03:05:02.789Z,96.15
2019-04-30T03:06:02.945Z,96.15
2019-04-30T03:07:03.113Z,96.45
2019-04-30T03:08:03.299Z,96.35
2019-04-30T03:09:03.471Z,96.15
2019-04-30T03:10:03.634Z,96.45
2019-04-30T03:11:03.849Z,96.35
2019-04-30T03:12:04.031Z,96.66
2019-04-30T03:13:04.208Z,96.15
2019-04-30T03:14:04.393Z,96.04
2019-04-30T03:15:04.607Z,96.04
2019-04-30T03:16:04.715Z,95.74
2019-04-30T03:17:04.919Z,95.94
2019-04-30T03:18:05.034Z,96.04
2019-04-30T03:19:05.204Z,96.04
2019-04-30T03:20:05.406Z,95.64
2019-04-30T03:21:05.570Z,95.43
2019-04-30T03:22:05.758Z,95.32
2019-04-30T03:23:05.940Z,96.56
2019-04-30T03:24:06.123Z,95.74
2019-04-30T03:25:06.265Z,95.43
2019-04-30T03:26:06.418Z,95.64
2019-04-30T03:27:09.524Z,95.64
2019-04-30T03:28:06.726Z,95.39
2019-04-30T03:29:06.869Z,95.53
2019-04-30T03:30:11.661Z,95.84
2019-04-30T03:31:11.982Z,95.43
2019-04-30T03:32:12.430Z,96.04
2019-04-30T03:33:12.481Z,95.49
2019-04-30T03:34:16.934Z,95.84
2019-04-30T03:35:12.773Z,95.74
2019-04-30T03:36:12.480Z,95.69
2019-04-30T03:37:10.105Z,95.43
2019-04-30T03:38:09.747Z,95.84
2019-04-30T03:39:10.889Z,94.71
2019-04-30T03:40:10.267Z,94.81
2019-04-30T03:41:09.943Z,94.81
2019-04-30T03:42:09.962Z,95.06
2019-04-30T03:43:10.485Z,94.81
2019-04-30T03:44:18.493Z,95.06
2019-04-30T03:45:11.601Z,95.68
2019-04-30T03:46:10.241Z,95.37
2019-04-30T03:47:11.236Z,95.32
2019-04-30T03:48:10.439Z,95.37
2019-04-30T03:49:13.156Z,94.61
2019-04-30T03:50:10.535Z,95.02
2019-04-30T03:51:10.865Z,95.47
2019-04-30T03:52:13.448Z,94.96
2019-04-30T03:53:12.129Z,94.65
2019-04-30T03:54:11.281Z,95.17
2019-04-30T03:55:11.447Z,95.37
2019-04-30T03:56:11.614Z,95.32
2019-04-30T03:57:11.781Z,95.68
2019-04-30T03:58:11.978Z,94.55
2019-04-30T03:59:12.181Z,94.85
2019-04-30T04:00:12.348Z,94.34
2019-04-30T04:01:12.486Z,94.85
2019-04-30T04:02:13.014Z,95.17
2019-04-30T04:03:13.981Z,95.06
2019-04-30T04:04:13.050Z,94.65
2019-04-30T04:05:13.207Z,94.34
2019-04-30T04:06:13.379Z,94.45
2019-04-30T04:07:14.560Z,94.76
2019-04-30T04:08:13.706Z,94.76
2019-04-30T04:09:13.872Z,94.65
2019-04-30T04:10:14.044Z,94.76
2019-04-30T04:11:14.184Z,95.47
2019-04-30T04:12:14.364Z,94.45
2019-04-30T04:13:14.506Z,95.06
2019-04-30T04:14:14.699Z,95.17
2019-04-30T04:15:14.847Z,94.34
2019-04-30T04:16:15.010Z,94.08
2019-04-30T04:17:15.171Z,94.39
2019-04-30T04:18:16.325Z,94.85
2019-04-30T04:19:15.488Z,94.76
2019-04-30T04:20:15.638Z,95.10
2019-04-30T04:21:17.090Z,94.85
2019-04-30T04:22:16.962Z,95.21
2019-04-30T04:23:16.197Z,94.24
2019-04-30T04:24:20.187Z,94.18
2019-04-30T04:25:20.434Z,94.39
2019-04-30T04:26:16.716Z,94.08
2019-04-30T04:27:19.176Z,94.18
2019-04-30T04:28:20.072Z,93.87
2019-04-30T04:29:19.632Z,93.87
2019-04-30T04:30:20.081Z,93.46
2019-04-30T04:31:19.283Z,93.87
2019-04-30T04:32:23.672Z,94.18
2019-04-30T04:33:19.926Z,93.98
2019-04-30T04:34:19.756Z,93.87
2019-04-30T04:35:19.915Z,93.83
2019-04-30T04:36:20.043Z,93.83
2019-04-30T04:37:20.374Z,94.39
2019-04-30T04:38:20.507Z,94.65
2019-04-30T04:39:20.408Z,93.46
2019-04-30T04:40:20.991Z,94.39
2019-04-30T04:41:20.290Z,94.96
2019-04-30T04:42:19.801Z,93.36
2019-04-30T04:43:20.588Z,94.18
2019-04-30T04:44:20.553Z,93.77
2019-04-30T04:45:20.971Z,94.04
2019-04-30T04:46:20.675Z,94.04
2019-04-30T04:47:21.284Z,93.21
2019-04-30T04:48:23.287Z,93.52
2019-04-30T04:49:21.609Z,93.32
2019-04-30T04:50:21.851Z,92.80
2019-04-30T04:51:36.601Z,92.91
2019-04-30T04:52:23.224Z,92.80
2019-04-30T04:53:21.341Z,92.91
2019-04-30T04:54:21.498Z,92.80
2019-04-30T04:55:22.353Z,93.67
2019-04-30T04:56:22.845Z,93.57
2019-04-30T04:57:22.943Z,93.98
2019-04-30T04:58:23.074Z,94.80
2019-04-30T04:59:22.199Z,93.83
2019-04-30T05:00:22.348Z,93.63
2019-04-30T05:01:22.625Z,94.24
2019-04-30T05:02:22.785Z,93.73
2019-04-30T05:03:22.928Z,94.65
2019-04-30T05:04:23.059Z,94.85
2019-04-30T05:05:23.225Z,94.08
2019-04-30T05:06:23.485Z,94.70
2019-04-30T05:07:23.620Z,94.80
2019-04-30T05:08:23.736Z,93.36
2019-04-30T05:09:23.893Z,94.18
2019-04-30T05:10:24.028Z,94.18
2019-04-30T05:11:24.289Z,94.80
2019-04-30T05:12:24.389Z,95.10
2019-04-30T05:13:24.605Z,94.90
2019-04-30T05:14:24.818Z,95.01
2019-04-30T05:15:26.049Z,94.80
2019-04-30T05:16:25.372Z,94.49
2019-04-30T05:17:25.473Z,94.90
2019-04-30T05:18:25.700Z,94.34
2019-04-30T05:19:25.922Z,95.27
2019-04-30T05:20:26.157Z,94.04
2019-04-30T05:21:26.396Z,94.34
2019-04-30T05:22:26.485Z,93.83
2019-04-30T05:23:26.688Z,93.98
2019-04-30T05:24:28.583Z,94.14
2019-04-30T05:25:27.118Z,95.17
2019-04-30T05:26:28.690Z,94.76
2019-04-30T05:27:27.525Z,94.76
2019-04-30T05:28:29.961Z,94.04
2019-04-30T05:29:28.948Z,93.83
2019-04-30T05:30:29.602Z,94.24
2019-04-30T05:31:29.237Z,93.93
2019-04-30T05:32:29.307Z,93.63
2019-04-30T05:33:29.598Z,93.52
2019-04-30T05:34:28.886Z,93.32
2019-04-30T05:35:31.068Z,93.73
2019-04-30T05:36:30.217Z,93.63
2019-04-30T05:37:29.484Z,93.36
2019-04-30T05:38:31.378Z,93.93
2019-04-30T05:39:29.795Z,93.12
2019-04-30T05:40:29.943Z,93.38
2019-04-30T05:41:30.164Z,93.02
2019-04-30T05:42:31.322Z,93.02
2019-04-30T05:43:30.472Z,91.14
2019-04-30T05:44:30.630Z,89.56
2019-04-30T05:45:30.772Z,89.62
2019-04-30T05:46:30.949Z,89.62
2019-04-30T05:47:31.102Z,88.70
2019-04-30T05:48:31.266Z,88.65
2019-04-30T05:49:31.428Z,87.88
2019-04-30T05:50:31.579Z,88.35
2019-04-30T05:51:31.733Z,87.53
2019-04-30T05:52:31.982Z,87.10
2019-04-30T05:53:32.168Z,87.37
2019-04-30T05:54:32.306Z,88.74
2019-04-30T05:55:32.479Z,88.84
2019-04-30T05:56:32.644Z,88.74
2019-04-30T05:57:32.780Z,89.56
2019-04-30T05:58:32.949Z,89.42
2019-04-30T05:59:33.153Z,88.59
2019-04-30T06:00:33.308Z,87.94
2019-04-30T06:01:33.489Z,87.02
2019-04-30T06:02:34.044Z,86.40
2019-04-30T06:03:34.769Z,86.20
2019-04-30T06:04:34.041Z,87.16
2019-04-30T06:05:34.189Z,88.39
2019-04-30T06:06:34.310Z,87.12
2019-04-30T06:07:34.434Z,87.06
2019-04-30T06:08:34.685Z,87.26
2019-04-30T06:09:34.877Z,86.38
2019-04-30T06:10:35.025Z,86.83
2019-04-30T06:11:35.187Z,88.51
2019-04-30T06:12:35.329Z,89.75
2019-04-30T06:13:35.578Z,88.72
2019-04-30T06:14:46.644Z,89.13
2019-04-30T06:15:39.089Z,88.88
2019-04-30T06:16:35.977Z,88.78
2019-04-30T06:17:36.086Z,88.78
2019-04-30T06:18:36.224Z,88.64
2019-04-30T06:19:36.373Z,88.08
2019-04-30T06:20:38.529Z,86.38
2019-04-30T06:21:36.740Z,86.18
2019-04-30T06:22:38.528Z,87.28
2019-04-30T06:23:37.108Z,88.62
2019-04-30T06:24:37.231Z,89.95
2019-04-30T06:25:55.272Z,89.54
2019-04-30T06:26:39.534Z,88.72
2019-04-30T06:27:38.799Z,87.45
2019-04-30T06:28:39.061Z,88.47
2019-04-30T06:29:39.151Z,87.71
2019-04-30T06:30:39.636Z,87.41
2019-04-30T06:31:40.126Z,86.07
2019-04-30T06:32:39.602Z,86.90
2019-04-30T06:33:39.710Z,87.10
2019-04-30T06:34:39.490Z,86.07
2019-04-30T06:35:40.216Z,87.61
2019-04-30T06:36:50.897Z,86.93
2019-04-30T06:37:41.570Z,87.14
2019-04-30T06:38:39.805Z,87.55
2019-04-30T06:39:39.958Z,87.65
2019-04-30T06:40:40.125Z,86.73
2019-04-30T06:41:41.062Z,87.04
2019-04-30T06:42:40.465Z,88.27
2019-04-30T06:43:40.609Z,87.24
2019-04-30T06:44:41.876Z,87.20
2019-04-30T06:45:41.874Z,86.48
2019-04-30T06:46:41.132Z,86.18
2019-04-30T06:47:41.263Z,86.75
2019-04-30T06:48:41.912Z,85.79
2019-04-30T06:49:42.618Z,84.22
2019-04-30T06:50:41.852Z,84.28
2019-04-30T06:51:41.983Z,83.76
2019-04-30T06:52:53.984Z,82.64
2019-04-30T06:53:43.289Z,81.62
2019-04-30T06:54:42.397Z,82.91
2019-04-30T06:55:42.565Z,83.11
2019-04-30T06:56:42.719Z,81.44
2019-04-30T06:57:42.871Z,80.76
2019-04-30T06:58:43.041Z,82.03
2019-04-30T06:59:43.195Z,83.76
2019-04-30T07:00:43.346Z,81.93
2019-04-30T07:01:43.517Z,83.05
2019-04-30T07:02:43.696Z,82.43
2019-04-30T07:03:43.843Z,82.23
2019-04-30T07:04:43.978Z,81.76
2019-04-30T07:05:44.119Z,82.48
2019-04-30T07:06:45.328Z,81.76
2019-04-30T07:07:44.506Z,82.98
2019-04-30T07:08:47.066Z,83.39
2019-04-30T07:09:52.716Z,83.29
2019-04-30T07:10:55.029Z,82.78
2019-04-30T07:11:49.224Z,82.78
2019-04-30T07:12:45.302Z,82.07
2019-04-30T07:13:45.488Z,82.48
2019-04-30T07:14:45.632Z,83.46
2019-04-30T07:15:45.786Z,82.17
2019-04-30T07:16:45.939Z,82.64
2019-04-30T07:17:46.115Z,82.95
2019-04-30T07:18:46.291Z,79.47
2019-04-30T07:19:54.286Z,81.70
2019-04-30T07:20:48.749Z,81.70
2019-04-30T07:21:46.749Z,83.84
2019-04-30T07:22:52.531Z,82.92
2019-04-30T07:23:49.022Z,82.86
2019-04-30T07:24:49.636Z,83.74
2019-04-30T07:25:51.386Z,83.29
2019-04-30T07:26:49.029Z,80.57
2019-04-30T07:27:50.489Z,81.79
2019-04-30T07:28:54.273Z,81.29
2019-04-30T07:29:50.172Z,82.98
2019-04-30T07:31:00.050Z,82.07
2019-04-30T07:31:51.685Z,80.94
2019-04-30T07:32:48.972Z,82.10
2019-04-30T07:33:53.451Z,83.33
2019-04-30T07:34:50.189Z,83.27
2019-04-30T07:35:49.853Z,83.78
2019-04-30T07:37:10.420Z,85.38
2019-04-30T07:37:54.519Z,85.03
2019-04-30T07:38:56.126Z,81.72
2019-04-30T07:39:51.905Z,80.74
2019-04-30T07:40:50.038Z,81.24
2019-04-30T07:41:50.251Z,81.45
2019-04-30T07:42:50.435Z,82.84
2019-04-30T07:43:50.629Z,80.19
2019-04-30T07:44:51.796Z,79.88
2019-04-30T07:45:50.930Z,80.15
2019-04-30T07:46:51.119Z,78.61
2019-04-30T07:47:51.298Z,79.94
2019-04-30T07:48:51.448Z,79.13
2019-04-30T07:49:55.059Z,78.88
2019-04-30T07:50:52.842Z,78.54
2019-04-30T07:51:52.887Z,79.29
2019-04-30T07:53:05.558Z,78.58
2019-04-30T07:53:54.395Z,78.78
2019-04-30T07:54:52.514Z,78.44
2019-04-30T07:55:52.679Z,80.07
2019-04-30T07:56:52.866Z,80.04
2019-04-30T07:57:53.031Z,77.55
2019-04-30T07:58:53.176Z,76.12
2019-04-30T07:59:53.404Z,76.43
2019-04-30T08:00:56.282Z,74.42
2019-04-30T08:02:04.097Z,76.43
2019-04-30T08:02:56.013Z,74.59
2019-04-30T08:03:54.594Z,74.83
2019-04-30T08:04:54.405Z,74.59
2019-04-30T08:05:54.696Z,77.45
2019-04-30T08:06:54.844Z,78.41
2019-04-30T08:07:54.992Z,78.88
2019-04-30T08:08:59.815Z,77.93
2019-04-30T08:09:58.972Z,77.08
2019-04-30T08:10:55.529Z,75.82
2019-04-30T08:11:55.685Z,74.73
2019-04-30T08:12:56.063Z,73.10
2019-04-30T08:13:56.316Z,70.41
2019-04-30T08:14:56.198Z,67.50
2019-04-30T08:15:56.367Z,68.59
2019-04-30T08:16:58.562Z,70.35
2019-04-30T08:18:03.538Z,68.08
2019-04-30T08:18:59.236Z,65.68
2019-04-30T08:19:58.745Z,66.80
2019-04-30T08:20:58.662Z,67.50
2019-04-30T08:21:58.626Z,63.98
2019-04-30T08:23:07.062Z,64.20
2019-04-30T08:24:01.096Z,66.24
2019-04-30T08:24:58.904Z,67.83
2019-04-30T08:25:58.740Z,65.63
2019-04-30T08:27:01.160Z,64.48
2019-04-30T08:27:59.105Z,67.22
2019-04-30T08:28:59.866Z,65.88
2019-04-30T08:29:59.815Z,65.81
2019-04-30T08:30:59.069Z,65.34
2019-04-30T08:31:59.404Z,62.65
2019-04-30T08:33:00.364Z,61.51
2019-04-30T08:33:59.612Z,62.46
2019-04-30T08:35:01.171Z,59.09
2019-04-30T08:36:00.956Z,61.99
2019-04-30T08:37:12.465Z,65.88
2019-04-30T08:38:01.264Z,64.56
2019-04-30T08:39:00.493Z,64.32
2019-04-30T08:40:03.380Z,64.65
2019-04-30T08:41:00.942Z,66.38
2019-04-30T08:42:02.011Z,65.13
2019-04-30T08:43:01.166Z,63.37
2019-04-30T08:44:01.314Z,65.20
2019-04-30T08:45:01.519Z,65.10
2019-04-30T08:46:01.701Z,68.42
2019-04-30T08:47:01.878Z,63.72
2019-04-30T08:48:02.040Z,63.39
2019-04-30T08:49:02.240Z,65.58
2019-04-30T08:50:03.036Z,63.32
2019-04-30T08:51:02.548Z,63.85
2019-04-30T08:52:02.732Z,64.67
2019-04-30T08:53:03.080Z,63.55
2019-04-30T08:54:03.143Z,63.58
2019-04-30T08:55:13.362Z,64.09
2019-04-30T08:56:05.537Z,62.41
2019-04-30T08:57:03.777Z,64.58
2019-04-30T08:58:09.830Z,66.11
2019-04-30T08:59:06.162Z,67.13
2019-04-30T09:00:04.287Z,64.84
2019-04-30T09:01:04.492Z,62.88
2019-04-30T09:02:15.245Z,60.40
2019-04-30T09:03:06.893Z,63.78
2019-04-30T09:04:07.488Z,63.65
2019-04-30T09:05:05.330Z,62.27
2019-04-30T09:06:05.524Z,62.52
2019-04-30T09:07:05.691Z,62.52
2019-04-30T09:08:05.883Z,61.80
2019-04-30T09:09:06.062Z,63.02
2019-04-30T09:10:06.232Z,59.68
2019-04-30T09:11:06.399Z,61.71
2019-04-30T09:12:06.554Z,58.67
2019-04-30T09:13:06.713Z,59.07
2019-04-30T09:14:08.502Z,61.55
2019-04-30T09:15:09.076Z,57.47
2019-04-30T09:16:09.135Z,59.29
2019-04-30T09:17:09.160Z,58.96
2019-04-30T09:18:12.451Z,59.23
2019-04-30T09:19:09.831Z,57.31
2019-04-30T09:20:09.168Z,58.30
2019-04-30T09:21:09.194Z,57.89
2019-04-30T09:22:14.903Z,56.27
2019-04-30T09:23:11.283Z,57.54
2019-04-30T09:24:09.551Z,56.98
2019-04-30T09:25:09.771Z,57.25
2019-04-30T09:26:08.926Z,53.12
2019-04-30T09:27:10.801Z,51.81
2019-04-30T09:28:10.243Z,54.16
2019-04-30T09:29:09.452Z,54.00
2019-04-30T09:30:10.585Z,54.28
2019-04-30T09:31:09.724Z,53.60
2019-04-30T09:32:09.890Z,58.37
2019-04-30T09:33:11.224Z,54.53
2019-04-30T09:34:17.548Z,56.32
2019-04-30T09:35:12.418Z,52.92
2019-04-30T09:36:10.575Z,57.69
2019-04-30T09:37:10.730Z,54.03
2019-04-30T09:38:10.912Z,54.61
2019-04-30T09:39:11.087Z,55.49
2019-04-30T09:40:17.968Z,53.75
2019-04-30T09:41:13.517Z,51.66
2019-04-30T09:42:11.649Z,55.90
2019-04-30T09:43:11.846Z,53.55
2019-04-30T09:44:12.060Z,52.94
2019-04-30T09:45:12.217Z,51.66
2019-04-30T09:46:19.168Z,56.65
2019-04-30T09:47:14.520Z,55.72
2019-04-30T09:48:12.680Z,57.06
2019-04-30T09:49:12.850Z,58.09
2019-04-30T09:50:13.033Z,57.06
2019-04-30T09:51:13.668Z,58.40
2019-04-30T09:52:13.498Z,56.35
2019-04-30T09:53:13.606Z,56.93
2019-04-30T09:54:15.146Z,58.36
2019-04-30T09:55:13.957Z,54.71
2019-04-30T09:56:14.124Z,53.80
2019-04-30T09:57:14.274Z,55.11
2019-04-30T09:58:17.605Z,55.41
2019-04-30T09:59:16.573Z,53.34
2019-04-30T10:00:14.800Z,52.64
2019-04-30T10:01:14.980Z,51.64
2019-04-30T10:02:15.147Z,54.76
2019-04-30T10:03:15.904Z,59.01
2019-04-30T10:04:15.716Z,58.38
2019-04-30T10:05:16.957Z,57.87
2019-04-30T10:06:15.754Z,55.19
2019-04-30T10:07:15.918Z,54.53
2019-04-30T10:08:16.074Z,51.79
2019-04-30T10:09:16.276Z,50.76
2019-04-30T10:10:16.419Z,48.83
2019-04-30T10:11:16.624Z,52.49
2019-04-30T10:12:16.773Z,54.00
2019-04-30T10:13:16.952Z,51.14
2019-04-30T10:14:17.127Z,46.88
2019-04-30T10:15:18.919Z,49.95
2019-04-30T10:16:19.557Z,47.94
2019-04-30T10:17:17.644Z,52.04
2019-04-30T10:18:17.795Z,52.56
2019-04-30T10:19:19.159Z,51.59
2019-04-30T10:20:18.110Z,52.64
2019-04-30T10:21:19.061Z,50.98
2019-04-30T10:22:19.559Z,49.15
2019-04-30T10:23:19.423Z,50.13
2019-04-30T10:24:19.874Z,47.75
2019-04-30T10:25:19.062Z,46.77
2019-04-30T10:26:19.209Z,50.06
2019-04-30T10:27:19.463Z,45.50
2019-04-30T10:28:19.735Z,45.77
2019-04-30T10:29:20.693Z,47.58
2019-04-30T10:30:19.871Z,48.46
2019-04-30T10:31:20.930Z,48.36
2019-04-30T10:32:21.265Z,43.76
2019-04-30T10:33:20.392Z,44.26
2019-04-30T10:34:20.541Z,43.82
2019-04-30T10:35:20.696Z,42.87
2019-04-30T10:36:20.908Z,44.64
2019-04-30T10:37:21.097Z,45.83
2019-04-30T10:38:21.256Z,48.60
2019-04-30T10:39:21.881Z,51.94
2019-04-30T10:40:22.602Z,50.81
2019-04-30T10:41:21.763Z,50.04
2019-04-30T10:42:21.940Z,46.83
2019-04-30T10:43:22.173Z,48.89
2019-04-30T10:44:22.207Z,46.11
2019-04-30T10:45:22.405Z,45.84
2019-04-30T10:46:22.571Z,45.06
2019-04-30T10:47:22.761Z,45.26
2019-04-30T10:48:22.980Z,44.30
2019-04-30T10:49:23.065Z,45.38
2019-04-30T10:50:23.409Z,45.08
2019-04-30T10:51:23.489Z,44.84
2019-04-30T10:52:23.688Z,45.30
2019-04-30T10:53:23.905Z,44.92
2019-04-30T10:54:26.485Z,48.30
2019-04-30T10:55:25.230Z,46.77
2019-04-30T10:56:24.392Z,46.07
2019-04-30T10:57:24.584Z,46.35
2019-04-30T10:58:24.809Z,45.95
2019-04-30T10:59:25.011Z,48.79
2019-04-30T11:00:25.189Z,52.23
2019-04-30T11:01:25.379Z,56.25
2019-04-30T11:02:25.586Z,50.12
2019-04-30T11:03:25.796Z,52.57
2019-04-30T11:04:25.994Z,48.85
2019-04-30T11:05:26.204Z,48.88
2019-04-30T11:06:26.376Z,47.75
2019-04-30T11:07:28.669Z,47.13
2019-04-30T11:08:26.768Z,49.24
2019-04-30T11:09:26.934Z,43.77
2019-04-30T11:10:28.659Z,44.05
2019-04-30T11:11:28.263Z,44.84
2019-04-30T11:12:29.071Z,46.74
2019-04-30T11:13:27.695Z,44.78
2019-04-30T11:14:27.903Z,43.79
2019-04-30T11:15:29.243Z,44.28
2019-04-30T11:16:29.776Z,46.49
2019-04-30T11:17:30.047Z,48.57
2019-04-30T11:18:29.831Z,49.45
2019-04-30T11:19:29.311Z,51.14
2019-04-30T11:20:30.188Z,50.93
2019-04-30T11:21:29.613Z,46.44
2019-04-30T11:22:30.518Z,51.66
2019-04-30T11:23:29.888Z,49.35
2019-04-30T11:24:38.096Z,45.37
2019-04-30T11:25:32.681Z,46.69
2019-04-30T11:26:32.091Z,49.63
2019-04-30T11:27:31.911Z,44.20
2019-04-30T11:28:30.609Z,45.67
2019-04-30T11:29:31.085Z,46.47
2019-04-30T11:30:32.013Z,47.53
2019-04-30T11:31:31.230Z,47.16
2019-04-30T11:32:31.354Z,45.43
2019-04-30T11:33:31.685Z,48.57
2019-04-30T11:34:31.711Z,42.24
2019-04-30T11:35:31.749Z,44.96
2019-04-30T11:36:31.958Z,43.85
2019-04-30T11:37:32.145Z,43.54
2019-04-30T11:38:32.312Z,41.83
2019-04-30T11:39:32.458Z,44.22
2019-04-30T11:40:37.009Z,45.53
2019-04-30T11:41:34.756Z,48.66
2019-04-30T11:42:32.883Z,45.47
2019-04-30T11:43:33.109Z,48.35
2019-04-30T11:44:33.348Z,47.62
2019-04-30T11:45:33.525Z,47.94
2019-04-30T11:46:33.706Z,48.95
2019-04-30T11:47:33.877Z,47.27
2019-04-30T11:48:34.083Z,46.42
2019-04-30T11:49:34.246Z,45.32
2019-04-30T11:50:34.427Z,44.20
2019-04-30T11:51:34.593Z,44.20
2019-04-30T11:52:34.777Z,44.64
2019-04-30T11:53:34.953Z,43.93
2019-04-30T11:54:35.115Z,42.85
2019-04-30T11:55:35.326Z,42.30
2019-04-30T11:56:38.294Z,45.97
2019-04-30T11:57:35.637Z,47.97
2019-04-30T11:58:35.806Z,47.73
2019-04-30T11:59:35.977Z,45.46
2019-04-30T12:00:36.174Z,42.68
2019-04-30T12:01:36.375Z,48.48
2019-04-30T12:02:36.548Z,49.58
2019-04-30T12:03:36.712Z,47.72
2019-04-30T12:04:36.878Z,46.97
2019-04-30T12:05:38.854Z,45.60
2019-04-30T12:06:37.193Z,42.66
2019-04-30T12:07:37.353Z,44.04
2019-04-30T12:08:39.235Z,42.25
2019-04-30T12:09:38.578Z,43.52
2019-04-30T12:10:39.171Z,46.84
2019-04-30T12:11:39.164Z,44.18
2019-04-30T12:12:38.793Z,46.93
2019-04-30T12:13:39.500Z,43.77
2019-04-30T12:14:39.570Z,43.16
2019-04-30T12:15:39.768Z,46.36
2019-04-30T12:16:39.614Z,42.55
2019-04-30T12:17:40.054Z,42.54
2019-04-30T12:18:39.219Z,42.91
2019-04-30T12:19:39.386Z,41.49
2019-04-30T12:20:39.581Z,44.95
2019-04-30T12:21:39.741Z,43.61
2019-04-30T12:22:39.915Z,42.11
2019-04-30T12:23:40.095Z,38.06
2019-04-30T12:24:40.266Z,41.03
2019-04-30T12:25:41.292Z,43.04
2019-04-30T12:26:41.601Z,43.12
2019-04-30T12:27:40.864Z,43.49
2019-04-30T12:28:40.992Z,44.42
2019-04-30T12:29:41.138Z,43.70
2019-04-30T12:30:41.301Z,42.41
2019-04-30T12:31:41.508Z,44.62
2019-04-30T12:32:41.672Z,43.19
2019-04-30T12:33:41.814Z,42.74
2019-04-30T12:34:42.070Z,42.77
2019-04-30T12:35:42.080Z,45.94
2019-04-30T12:36:42.235Z,44.28
2019-04-30T12:37:42.415Z,49.02
2019-04-30T12:38:42.816Z,42.15
2019-04-30T12:39:42.692Z,38.34
2019-04-30T12:40:42.861Z,38.12
2019-04-30T12:41:43.000Z,37.70
2019-04-30T12:42:43.162Z,37.81
2019-04-30T12:43:43.307Z,42.55
2019-04-30T12:44:43.455Z,37.93
2019-04-30T12:45:44.585Z,39.94
2019-04-30T12:46:43.818Z,43.77
2019-04-30T12:47:43.973Z,41.39
2019-04-30T12:48:44.127Z,39.46
2019-04-30T12:49:44.283Z,40.59
2019-04-30T12:50:44.410Z,39.96
2019-04-30T12:51:46.034Z,37.97
2019-04-30T12:52:45.775Z,38.17
2019-04-30T12:53:45.023Z,37.93
2019-04-30T12:54:45.177Z,39.18